createdAt,value
2018-07-05T00:04:51.329Z,68.70
2018-07-05T00:07:31.098Z,68.90
2018-07-05T00:10:11.160Z,69.40
2018-07-05T00:12:50.799Z,68.90
2018-07-05T00:15:30.512Z,69.60
2018-07-05T00:18:10.189Z,69.50
2018-07-05T00:20:50.052Z,69.80
2018-07-05T00:23:29.781Z,69.50
2018-07-05T00:26:09.546Z,70.20
2018-07-05T00:28:49.309Z,70.80
2018-07-05T00:31:29.023Z,70.20
2018-07-05T00:34:08.802Z,70.00
2018-07-05T00:36:48.686Z,69.70
2018-07-05T00:39:29.334Z,69.50
2018-07-05T00:42:08.990Z,70.60
2018-07-05T00:44:48.647Z,72.70
2018-07-05T00:47:28.473Z,71.60
2018-07-05T00:50:08.284Z,72.20
2018-07-05T00:52:48.124Z,72.00
2018-07-05T00:55:27.928Z,72.30
2018-07-05T00:58:07.794Z,72.10
2018-07-05T01:00:48.667Z,71.50
2018-07-05T01:03:28.903Z,71.50
2018-07-05T01:06:08.755Z,71.80
2018-07-05T01:08:48.501Z,72.00
2018-07-05T01:11:28.167Z,71.30
2018-07-05T01:14:07.911Z,71.90
2018-07-05T01:16:47.580Z,72.60
2018-07-05T01:19:27.263Z,73.50
2018-07-05T01:22:06.951Z,73.50
2018-07-05T01:24:46.853Z,73.80
2018-07-05T01:27:26.557Z,74.00
2018-07-05T01:30:06.461Z,73.50
2018-07-05T01:32:46.491Z,73.70
2018-07-05T01:35:26.455Z,73.20
2018-07-05T01:38:06.295Z,74.00
2018-07-05T01:40:45.987Z,73.70
2018-07-05T01:43:25.703Z,74.30
2018-07-05T01:46:05.421Z,73.80
2018-07-05T01:48:45.380Z,74.10
2018-07-05T01:51:24.972Z,74.50
2018-07-05T01:54:04.706Z,74.50
2018-07-05T01:56:44.622Z,74.20
2018-07-05T01:59:24.438Z,74.40
2018-07-05T02:02:04.159Z,74.40
2018-07-05T02:04:44.098Z,74.10
2018-07-05T02:09:58.537Z,74.80
2018-07-05T02:12:38.283Z,77.00
2018-07-05T02:15:18.226Z,77.60
2018-07-05T02:17:58.051Z,76.50
2018-07-05T02:20:37.848Z,75.70
2018-07-05T02:23:17.647Z,74.90
2018-07-05T02:25:57.355Z,74.30
2018-07-05T02:28:37.088Z,73.50
2018-07-05T02:31:16.746Z,74.40
2018-07-05T02:33:59.346Z,76.60
2018-07-05T02:36:39.061Z,76.30
2018-07-05T02:39:24.003Z,76.10
2018-07-05T02:42:03.744Z,77.00
2018-07-05T02:44:43.984Z,77.40
2018-07-05T02:47:23.576Z,78.10
2018-07-05T02:50:03.334Z,80.00
2018-07-05T02:52:43.014Z,78.70
2018-07-05T02:55:22.750Z,79.00
2018-07-05T02:58:02.590Z,79.60
2018-07-05T03:00:45.234Z,79.80
2018-07-05T03:03:26.407Z,79.80
2018-07-05T03:06:06.186Z,80.60
2018-07-05T03:08:45.911Z,80.40
2018-07-05T03:11:25.985Z,80.10
2018-07-05T03:14:05.646Z,81.30
2018-07-05T03:16:45.314Z,82.10
2018-07-05T03:19:24.996Z,81.20
2018-07-05T03:22:04.803Z,81.90
2018-07-05T03:24:44.458Z,82.50
2018-07-05T03:27:24.142Z,82.10
2018-07-05T03:30:03.682Z,82.10
2018-07-05T03:32:43.442Z,82.70
2018-07-05T03:35:23.156Z,82.90
2018-07-05T03:38:02.758Z,83.50
2018-07-05T03:40:42.454Z,83.70
2018-07-05T03:43:22.110Z,85.40
2018-07-05T03:46:01.754Z,84.60
2018-07-05T03:48:41.393Z,85.40
2018-07-05T03:51:21.036Z,85.90
2018-07-05T03:54:00.753Z,86.10
2018-07-05T03:56:40.598Z,85.90
2018-07-05T03:59:20.290Z,85.80
2018-07-05T04:01:59.928Z,86.40
2018-07-05T04:04:39.682Z,86.20
2018-07-05T04:07:19.434Z,86.60
2018-07-05T04:09:59.177Z,87.50
2018-07-05T04:12:38.752Z,87.60
2018-07-05T04:15:18.397Z,86.20
2018-07-05T04:17:58.052Z,84.90
2018-07-05T04:20:37.614Z,86.60
2018-07-05T04:23:17.229Z,85.40
2018-07-05T04:25:57.002Z,83.40
2018-07-05T04:28:36.804Z,82.80
2018-07-05T04:31:16.888Z,82.00
2018-07-05T04:33:56.742Z,81.30
2018-07-05T04:36:36.562Z,81.00
2018-07-05T04:39:17.039Z,80.30
2018-07-05T04:41:56.818Z,79.70
2018-07-05T04:44:36.714Z,79.40
2018-07-05T04:47:16.352Z,79.50
2018-07-05T04:49:56.242Z,79.40
2018-07-05T04:52:36.151Z,80.10
2018-07-05T04:55:15.961Z,80.00
2018-07-05T04:57:55.743Z,80.20
2018-07-05T05:00:36.287Z,81.00
2018-07-05T05:03:16.052Z,81.00
2018-07-05T05:05:55.848Z,78.30
2018-07-05T05:08:35.527Z,78.60
2018-07-05T05:11:15.277Z,78.80
2018-07-05T05:13:55.191Z,78.60
2018-07-05T05:16:35.011Z,80.00
2018-07-05T05:19:14.688Z,80.80
2018-07-05T05:21:54.429Z,80.40
2018-07-05T05:24:34.207Z,80.10
2018-07-05T05:29:47.558Z,80.30
2018-07-05T05:32:27.535Z,79.10
2018-07-05T05:35:07.232Z,79.60
2018-07-05T05:37:47.059Z,78.50
2018-07-05T05:40:26.724Z,78.00
2018-07-05T05:43:06.516Z,77.50
2018-07-05T05:45:46.335Z,76.20
2018-07-05T05:48:26.147Z,75.70
2018-07-05T05:51:05.905Z,76.80
2018-07-05T05:53:45.608Z,75.90
2018-07-05T05:56:25.359Z,76.70
2018-07-05T05:59:05.167Z,75.50
2018-07-05T06:01:44.907Z,76.50
2018-07-05T06:04:24.965Z,74.70
2018-07-05T06:07:04.684Z,75.80
2018-07-05T06:09:44.304Z,76.60
2018-07-05T06:12:24.167Z,76.30
2018-07-05T06:15:04.000Z,75.00
2018-07-05T06:17:43.838Z,75.80
2018-07-05T06:20:26.343Z,74.90
2018-07-05T06:23:06.090Z,75.20
2018-07-05T06:25:45.824Z,74.80
2018-07-05T06:28:25.645Z,76.20
2018-07-05T06:31:05.530Z,75.90
2018-07-05T06:33:45.936Z,76.40
2018-07-05T06:36:25.694Z,76.30
2018-07-05T06:39:07.020Z,75.20
2018-07-05T06:41:47.290Z,74.20
2018-07-05T06:44:26.884Z,76.10
2018-07-05T06:47:06.622Z,74.40
2018-07-05T06:49:46.457Z,73.60
2018-07-05T06:52:26.162Z,72.90
2018-07-05T06:55:06.191Z,72.40
2018-07-05T06:57:45.979Z,71.50
2018-07-05T07:00:26.394Z,71.00
2018-07-05T07:03:06.023Z,71.30
2018-07-05T07:05:45.592Z,70.70
2018-07-05T07:08:25.368Z,70.20
2018-07-05T07:11:05.060Z,68.40
2018-07-05T07:13:44.925Z,68.10
2018-07-05T07:16:25.615Z,68.50
2018-07-05T07:19:05.227Z,67.10
2018-07-05T07:21:45.051Z,65.30
2018-07-05T07:24:24.964Z,64.70
2018-07-05T07:27:04.677Z,64.50
2018-07-05T07:29:44.234Z,63.70
2018-07-05T07:32:23.814Z,63.50
2018-07-05T07:35:03.580Z,63.30
2018-07-05T07:37:43.154Z,63.80
2018-07-05T07:40:22.851Z,62.20
2018-07-05T07:42:50.169Z,59.50
2018-07-05T07:45:17.539Z,60.60
2018-07-05T07:47:44.882Z,58.00
2018-07-05T07:50:13.759Z,58.20
2018-07-05T07:52:41.125Z,58.80
2018-07-05T07:55:08.489Z,55.30
2018-07-05T07:57:35.940Z,54.30
2018-07-05T08:02:36.735Z,54.30
2018-07-05T08:05:04.127Z,52.60
2018-07-05T08:07:31.498Z,51.90
2018-07-05T08:09:58.899Z,52.50
2018-07-05T08:12:26.260Z,52.40
2018-07-05T08:14:54.222Z,52.40
2018-07-05T08:17:22.024Z,51.60
2018-07-05T08:19:49.451Z,51.40
2018-07-05T08:22:16.912Z,49.30
2018-07-05T08:24:44.272Z,48.80
2018-07-05T08:27:11.783Z,48.70
2018-07-05T08:29:39.111Z,46.40
2018-07-05T08:32:06.567Z,48.10
2018-07-05T08:34:33.906Z,46.90
2018-07-05T08:37:01.316Z,45.40
2018-07-05T08:39:28.712Z,43.60
2018-07-05T08:41:56.214Z,44.00
2018-07-05T08:44:23.553Z,43.10
2018-07-05T08:46:50.952Z,43.70
2018-07-05T08:49:18.356Z,43.20
2018-07-05T08:51:45.770Z,44.00
2018-07-05T08:54:13.400Z,44.20
2018-07-05T08:56:40.870Z,43.70
2018-07-05T08:59:08.290Z,43.00
2018-07-05T09:01:35.774Z,43.10
2018-07-05T09:04:03.228Z,42.30
2018-07-05T09:06:30.694Z,42.40
2018-07-05T09:08:58.132Z,41.60
2018-07-05T09:11:25.608Z,39.70
2018-07-05T09:13:53.044Z,40.90
2018-07-05T09:16:20.494Z,39.60
2018-07-05T09:18:47.933Z,40.50
2018-07-05T09:21:15.492Z,40.40
2018-07-05T09:23:42.975Z,41.60
2018-07-05T09:26:10.411Z,40.30
2018-07-05T09:28:37.891Z,40.90
2018-07-05T09:31:05.329Z,41.00
2018-07-05T09:33:32.751Z,40.00
2018-07-05T09:36:00.496Z,40.20
2018-07-05T09:38:28.070Z,39.10
2018-07-05T09:40:55.504Z,38.80
2018-07-05T09:43:22.975Z,37.20
2018-07-05T09:45:50.379Z,38.00
2018-07-05T09:48:17.939Z,35.80
2018-07-05T09:50:45.452Z,36.70
2018-07-05T09:53:12.930Z,38.00
2018-07-05T09:55:40.405Z,37.70
2018-07-05T09:58:07.903Z,39.40
2018-07-05T10:00:40.532Z,39.40
2018-07-05T10:03:08.056Z,38.50
2018-07-05T10:05:35.484Z,39.60
2018-07-05T10:08:02.899Z,38.10
2018-07-05T10:10:30.338Z,38.90
2018-07-05T10:12:57.889Z,39.90
2018-07-05T10:15:25.344Z,39.70
2018-07-05T10:17:52.792Z,38.40
2018-07-05T10:20:20.203Z,37.00
2018-07-05T10:22:47.576Z,37.40
2018-07-05T10:25:15.003Z,37.40
2018-07-05T10:27:42.400Z,37.50
2018-07-05T10:30:22.343Z,38.20
2018-07-05T10:33:02.373Z,36.80
2018-07-05T10:37:57.875Z,36.40
2018-07-05T10:40:38.886Z,35.40
2018-07-05T10:43:18.715Z,38.10
2018-07-05T10:45:58.978Z,36.60
2018-07-05T10:48:38.939Z,36.80
2018-07-05T10:53:52.503Z,36.70
2018-07-05T10:56:32.273Z,36.40
2018-07-05T10:59:12.336Z,37.80
2018-07-05T11:01:52.429Z,38.90
2018-07-05T11:04:32.200Z,39.00
2018-07-05T11:07:12.289Z,40.50
2018-07-05T11:09:51.925Z,39.30
2018-07-05T11:12:31.807Z,41.00
2018-07-05T11:15:11.644Z,41.40
2018-07-05T11:17:52.664Z,43.10
2018-07-05T11:20:32.391Z,42.80
2018-07-05T11:23:12.040Z,41.80
2018-07-05T11:25:51.615Z,40.40
2018-07-05T11:28:31.436Z,40.40
2018-07-05T11:31:11.278Z,40.10
2018-07-05T11:33:51.208Z,39.80
2018-07-05T11:36:31.191Z,40.20
2018-07-05T11:39:11.498Z,38.70
2018-07-05T11:41:51.200Z,40.10
2018-07-05T11:44:30.881Z,39.20
2018-07-05T11:47:10.740Z,37.60
2018-07-05T11:49:50.558Z,37.90
2018-07-05T11:52:30.836Z,37.60
2018-07-05T11:55:10.643Z,37.30
2018-07-05T11:57:50.315Z,36.60
2018-07-05T12:00:30.049Z,36.50
2018-07-05T12:03:09.838Z,35.60
2018-07-05T12:05:49.622Z,35.40
2018-07-05T12:08:29.159Z,36.60
2018-07-05T12:11:09.116Z,35.40
2018-07-05T12:13:48.873Z,35.20
2018-07-05T12:16:28.793Z,35.60
2018-07-05T12:21:42.324Z,35.60
2018-07-05T12:24:22.165Z,36.40
2018-07-05T12:27:01.873Z,34.60
2018-07-05T12:29:41.496Z,35.90
2018-07-05T12:32:21.220Z,36.30
2018-07-05T12:35:03.923Z,34.30
2018-07-05T12:37:43.889Z,35.10
2018-07-05T12:40:23.757Z,34.60
2018-07-05T12:43:03.595Z,35.80
2018-07-05T12:45:43.554Z,34.00
2018-07-05T12:48:23.219Z,34.90
2018-07-05T12:51:02.987Z,34.30
2018-07-05T12:53:42.629Z,35.00
2018-07-05T12:56:22.399Z,35.30
2018-07-05T12:59:02.279Z,34.80
2018-07-05T13:01:42.065Z,35.70
2018-07-05T13:04:21.849Z,34.40
2018-07-05T13:07:01.601Z,33.90
2018-07-05T13:09:46.317Z,34.60
2018-07-05T13:12:26.173Z,33.30
2018-07-05T13:15:06.063Z,34.10
2018-07-05T13:17:45.896Z,34.70
2018-07-05T13:20:25.557Z,34.60
2018-07-05T13:23:05.225Z,34.00
2018-07-05T13:25:45.107Z,36.30
2018-07-05T13:28:24.836Z,36.60
2018-07-05T13:31:04.659Z,38.90
2018-07-05T13:33:44.478Z,37.90
2018-07-05T13:38:57.899Z,41.30
2018-07-05T13:41:37.506Z,39.40
2018-07-05T13:44:17.199Z,40.90
2018-07-05T13:46:57.579Z,40.80
2018-07-05T13:49:37.241Z,40.40
2018-07-05T13:52:17.005Z,40.60
2018-07-05T13:54:56.833Z,39.80
2018-07-05T13:57:37.010Z,40.40
2018-07-05T14:00:19.519Z,38.60
2018-07-05T14:02:59.411Z,38.30
2018-07-05T14:05:39.432Z,38.30
2018-07-05T14:08:19.077Z,38.60
2018-07-05T14:10:58.907Z,40.00
2018-07-05T14:13:38.547Z,39.70
2018-07-05T14:16:18.369Z,40.30
2018-07-05T14:21:32.378Z,41.10
2018-07-05T14:24:12.091Z,40.80
2018-07-05T14:26:51.832Z,41.70
2018-07-05T14:29:31.753Z,42.00
2018-07-05T14:32:11.573Z,42.30
2018-07-05T14:34:51.471Z,43.10
2018-07-05T14:37:31.142Z,43.40
2018-07-05T14:40:12.540Z,42.80
2018-07-05T14:42:52.294Z,45.10
2018-07-05T14:45:32.108Z,45.00
2018-07-05T14:48:11.843Z,45.70
2018-07-05T14:50:51.665Z,46.10
2018-07-05T14:53:31.383Z,44.50
2018-07-05T14:56:11.104Z,47.30
2018-07-05T14:58:50.907Z,45.80
2018-07-05T15:01:30.537Z,44.40
2018-07-05T15:04:10.419Z,45.70
2018-07-05T15:06:50.272Z,45.00
2018-07-05T15:09:30.514Z,47.60
2018-07-05T15:12:10.353Z,46.10
2018-07-05T15:14:50.084Z,46.00
2018-07-05T15:17:29.814Z,45.80
2018-07-05T15:20:09.602Z,45.60
2018-07-05T15:22:49.703Z,46.20
2018-07-05T15:25:29.525Z,49.50
2018-07-05T15:28:09.386Z,47.90
2018-07-05T15:30:49.462Z,48.10
2018-07-05T15:33:29.398Z,47.30
2018-07-05T15:36:09.274Z,47.10
2018-07-05T15:38:49.277Z,45.90
2018-07-05T15:41:29.033Z,45.80
2018-07-05T15:44:08.693Z,46.80
2018-07-05T15:46:48.604Z,44.80
2018-07-05T15:49:28.402Z,45.20
2018-07-05T15:52:08.252Z,47.70
2018-07-05T15:54:48.010Z,46.00
2018-07-05T15:57:27.813Z,45.40
2018-07-05T16:00:07.716Z,46.80
2018-07-05T16:02:47.415Z,46.50
2018-07-05T16:05:27.158Z,47.40
2018-07-05T16:08:06.932Z,47.30
2018-07-05T16:10:46.764Z,46.90
2018-07-05T16:13:26.552Z,46.70
2018-07-05T16:16:06.328Z,46.30
2018-07-05T16:18:46.100Z,46.40
2018-07-05T16:21:25.934Z,46.90
2018-07-05T16:24:05.648Z,47.50
2018-07-05T16:26:45.412Z,47.80
2018-07-05T16:29:25.227Z,45.70
2018-07-05T16:32:04.954Z,46.30
2018-07-05T16:34:44.668Z,43.40
2018-07-05T16:37:24.401Z,44.90
2018-07-05T16:40:04.639Z,44.40
2018-07-05T16:42:45.371Z,44.10
2018-07-05T16:45:25.137Z,43.10
2018-07-05T16:48:04.760Z,43.90
2018-07-05T16:50:45.693Z,44.20
2018-07-05T16:53:25.341Z,45.40
2018-07-05T16:56:04.975Z,46.00
2018-07-05T16:58:45.205Z,46.30
2018-07-05T17:01:25.051Z,47.40
2018-07-05T17:04:04.899Z,48.00
2018-07-05T17:06:44.930Z,49.30
2018-07-05T17:11:58.903Z,53.50
2018-07-05T17:17:12.373Z,53.80
2018-07-05T17:19:52.387Z,55.00
2018-07-05T17:22:32.223Z,55.90
2018-07-05T17:25:11.962Z,55.30
2018-07-05T17:27:51.643Z,57.70
2018-07-05T17:30:31.624Z,58.90
2018-07-05T17:33:11.476Z,58.30
2018-07-05T17:35:51.229Z,57.80
2018-07-05T17:38:32.315Z,59.90
2018-07-05T17:43:57.605Z,57.30
2018-07-05T17:46:37.708Z,57.80
2018-07-05T17:49:17.375Z,58.30
2018-07-05T17:51:57.055Z,59.40
2018-07-05T17:54:36.935Z,59.30
2018-07-05T17:57:16.718Z,57.80
2018-07-05T18:02:30.219Z,62.00
2018-07-05T18:05:10.047Z,59.00
2018-07-05T18:07:49.816Z,60.70
2018-07-05T18:10:29.606Z,59.40
2018-07-05T18:13:09.292Z,58.20
2018-07-05T18:15:49.044Z,57.50
2018-07-05T18:18:28.649Z,57.70
2018-07-05T18:21:08.476Z,57.90
2018-07-05T18:23:48.272Z,58.40
2018-07-05T18:26:28.014Z,59.40
2018-07-05T18:29:17.938Z,60.50
2018-07-05T18:31:58.008Z,62.20
2018-07-05T18:34:37.950Z,62.30
2018-07-05T18:37:17.715Z,63.20
2018-07-05T18:39:57.355Z,63.90
2018-07-05T18:42:37.111Z,64.80
2018-07-05T18:45:16.890Z,64.80
2018-07-05T18:47:57.866Z,64.70
2018-07-05T18:50:38.009Z,65.10
2018-07-05T18:53:17.758Z,66.10
2018-07-05T18:55:57.552Z,66.00
2018-07-05T18:58:37.386Z,67.10
2018-07-05T19:01:17.611Z,67.20
2018-07-05T19:03:57.422Z,67.20
2018-07-05T19:06:37.251Z,68.30
2018-07-05T19:09:18.833Z,68.70
2018-07-05T19:11:58.466Z,69.20
2018-07-05T19:14:39.304Z,71.00
2018-07-05T19:17:19.051Z,69.40
2018-07-05T19:19:58.970Z,70.70
2018-07-05T19:22:38.958Z,70.90
2018-07-05T19:25:18.730Z,71.10
2018-07-05T19:27:58.466Z,71.60
2018-07-05T19:30:38.056Z,71.60
2018-07-05T19:33:17.929Z,71.80
2018-07-05T19:35:57.586Z,72.90
2018-07-05T19:38:37.783Z,72.80
2018-07-05T19:41:17.812Z,73.40
2018-07-05T19:43:57.568Z,73.80
2018-07-05T19:46:37.831Z,74.40
2018-07-05T19:49:17.636Z,78.70
2018-07-05T19:51:57.505Z,80.70
2018-07-05T19:54:37.288Z,80.50
2018-07-05T19:57:16.871Z,81.70
2018-07-05T19:59:56.787Z,80.20
2018-07-05T20:02:36.401Z,81.10
2018-07-05T20:05:16.112Z,81.20
2018-07-05T20:07:55.935Z,81.80
2018-07-05T20:10:35.617Z,81.30
2018-07-05T20:13:15.429Z,81.20
2018-07-05T20:18:28.679Z,80.70
2018-07-05T20:21:09.474Z,80.60
2018-07-05T20:23:49.054Z,80.40
2018-07-05T20:26:28.804Z,79.60
2018-07-05T20:31:44.883Z,77.10
2018-07-05T20:34:24.639Z,76.40
2018-07-05T20:37:04.274Z,75.10
2018-07-05T20:39:44.343Z,75.70
2018-07-05T20:42:24.147Z,75.50
2018-07-05T20:45:03.878Z,76.40
2018-07-05T20:47:43.890Z,74.60
2018-07-05T20:50:23.659Z,75.00
2018-07-05T20:55:37.758Z,76.40
2018-07-05T20:58:17.434Z,77.70
2018-07-05T21:00:57.065Z,78.60
2018-07-05T21:03:36.958Z,78.70
2018-07-05T21:06:16.757Z,79.50
2018-07-05T21:08:57.069Z,79.50
2018-07-05T21:11:36.633Z,80.60
2018-07-05T21:14:16.268Z,81.60
2018-07-05T21:16:55.920Z,81.30
2018-07-05T21:19:35.721Z,82.00
2018-07-05T21:22:15.466Z,82.30
2018-07-05T21:24:55.167Z,82.80
2018-07-05T21:27:34.944Z,83.80
2018-07-05T21:30:14.782Z,84.10
2018-07-05T21:32:54.386Z,83.90
2018-07-05T21:35:34.203Z,83.80
2018-07-05T21:38:13.898Z,83.80
2018-07-05T21:40:53.701Z,84.00
2018-07-05T21:43:33.302Z,84.30
2018-07-05T21:46:12.975Z,83.70
2018-07-05T21:48:52.753Z,84.40
2018-07-05T21:51:32.427Z,84.80
2018-07-05T21:54:12.104Z,84.10
2018-07-05T21:56:51.772Z,84.50
2018-07-05T21:59:31.553Z,84.10
2018-07-05T22:02:11.226Z,83.20
2018-07-05T22:04:50.826Z,83.70
2018-07-05T22:07:30.631Z,83.10
2018-07-05T22:12:44.400Z,80.40
2018-07-05T22:15:24.371Z,78.00
2018-07-05T22:18:09.544Z,76.20
2018-07-05T22:20:54.698Z,75.90
2018-07-05T22:23:39.833Z,75.10
2018-07-05T22:26:24.690Z,75.40
2018-07-05T22:29:09.730Z,76.20
2018-07-05T22:31:54.804Z,76.20
2018-07-05T22:34:34.564Z,76.70
2018-07-05T22:37:14.366Z,77.00
2018-07-05T22:39:54.597Z,77.10
2018-07-05T22:42:34.294Z,77.20
2018-07-05T22:45:14.230Z,77.40
2018-07-05T22:47:53.978Z,77.90
2018-07-05T22:50:33.972Z,77.50
2018-07-05T22:53:13.865Z,77.70
2018-07-05T22:55:54.200Z,78.00
2018-07-05T23:01:09.364Z,78.00
2018-07-05T23:03:49.178Z,78.20
2018-07-05T23:06:28.791Z,77.30
2018-07-05T23:09:11.275Z,77.20
2018-07-05T23:11:51.412Z,76.90
2018-07-05T23:14:31.138Z,77.20
2018-07-05T23:17:10.798Z,77.00
2018-07-05T23:19:50.497Z,76.90
2018-07-05T23:22:30.411Z,77.20
2018-07-05T23:25:10.199Z,77.40
2018-07-05T23:30:24.727Z,76.80
2018-07-05T23:33:04.398Z,77.50
2018-07-05T23:35:44.133Z,77.50
2018-07-05T23:38:23.782Z,77.60
2018-07-05T23:41:03.607Z,77.80
2018-07-05T23:43:43.400Z,77.60
2018-07-05T23:46:23.190Z,78.00
2018-07-05T23:49:02.854Z,78.00
2018-07-05T23:51:42.752Z,78.10
2018-07-05T23:54:22.311Z,77.90
2018-07-05T23:57:01.896Z,78.20
2018-07-05T23:59:41.714Z,78.30
